Hoquiam, WA (98550)

8:38 PM PDT on July 03, 2015 (GMT -0700)
Sumner & Myrtle, Aberdeen | | Change Station
CLOSE
Current Station
Personal Weather Station
Location: Hoquiam, WA
Elevation: 7 ft
Nearby Weather Stations
Active Advisory: Special Statement Active Notice: Record Report

Elev 7 ft 46.98 °N, 123.85 °W | Updated 4 seconds ago

Haze
Haze
59.7 °F
Feels Like 59.7 °F
N
10.7
Wind Variable Wind from WSW
Gusts 14.0 mph

Today
High -- | Low -- °F
--% Chance of Precip.
Yesterday
High -- | Low -- °F
Precip. -- in
5:25 AM 9:13 PM
Waning Gibbous, 94% visible
Pressure 29.93 in
Visibility 5.0 miles
Clouds Clear
Dew Point 54 °F
Humidity 83%
Rainfall 0.00 in
Snow Depth Not available.
UV 1 out of 12
Pollen 6.20 out of 12
Air Quality Not available.
Flu Activity Not available.
METAR KHQM 040253Z AUTO 24010KT 5SM HZ CLR 17/12 A2992 RMK AO2 SLP135 T01670122 56008

More Conditions Fewer Conditions

Pressure 29.93 in
Visibility 5.0 miles
Clouds Clear
Dew Point 54 °F
Humidity 83%
Rainfall 0.00 in
Snow Depth Not available.
UV 1 out of 12
Pollen 6.20 out of 12
Air Quality Not available.
Flu Activity Not available.
METAR KHQM 040253Z AUTO 24010KT 5SM HZ CLR 17/12 A2992 RMK AO2 SLP135 T01670122 56008

More Conditions Fewer Conditions

10-Day Weather Forecast

×

Almanac

Astronomy

Jul. 03, 2015 Rise Set
Actual Time
Civil Twilight
Nautical Twilight
Astronomical Twilight
Moon
Length of Visible Light
Length of Day
Tomorrow will be .
, % of the Moon is Illuminated

Today's Extremes

State Highs State Lows

Community

WunderPhotos

Upload Photos

1,834,911 photos uploaded!

WunderBlogs® & News

Nearby

Air Quality

  Air Quality AQ Index Pollutant
Not available.

Snow Depth

Station Depth Elevation

Earthquake Activity

City Distance Mag. Time & Date
Minimum magnitude displayed is 2.5.

Coastal Water Temperatures

Place Temperature

Stations

Nearby Weather Stations

Station Location Temp. Windchill Dew Point Humidity Wind Precip. Elev Updated Type
                   
Special Statement
Statement as of 2:38 PM PDT on July 03, 2015

... Hot weather for the Holiday weekend for western Washington... .

High temperatures will continue to be well above normal through
the weekend. On Saturday temperatures will again be in the 80s and
lower 90s for much of the area... with the coast in the 70s. On
Sunday the coast will warm well into the 80s and inland areas
could reach the mid 90s.

The recent warm dry weather has lead areas of tall grass drying
out early this Summer. Fireworks are banned in a number of
communities and for the most part campfires are banned as well.

Cooler cloudier weather may develop toward the end of next week.


Www.Weather.Gov/Seattle